createdAt,value
2023-04-03T09:52:17.356Z,8.00
2023-04-03T09:54:45.354Z,8.00
2023-04-03T09:57:14.512Z,8.00
2023-04-03T09:59:54.674Z,8.10
2023-04-03T10:02:31.447Z,8.10
2023-04-03T10:07:44.450Z,8.10
2023-04-03T10:10:26.940Z,8.20
2023-04-03T10:13:09.375Z,8.20
2023-04-03T10:15:47.167Z,8.10
2023-04-03T10:18:28.643Z,8.10
2023-04-03T10:23:47.527Z,8.30
2023-04-03T10:26:18.872Z,8.30
2023-04-03T10:28:50.898Z,8.40
2023-04-03T11:33:54.427Z,9.00
2023-04-03T11:36:31.038Z,9.10
2023-04-03T11:42:06.857Z,9.30
2023-04-03T11:44:43.844Z,9.20
2023-04-03T11:47:14.219Z,9.20
2023-04-03T11:50:03.495Z,9.20
2023-04-03T11:52:58.548Z,9.30
2023-04-03T11:55:50.755Z,9.50
2023-04-03T11:58:19.559Z,9.50
2023-04-03T12:00:53.607Z,9.50
2023-04-03T12:03:58.426Z,9.60
2023-04-03T12:07:08.181Z,9.70
2023-04-03T12:10:03.641Z,9.60
2023-04-03T12:12:38.502Z,9.60
2023-04-03T12:15:30.661Z,9.70
2023-04-03T12:18:04.420Z,9.70
2023-04-03T12:20:54.129Z,9.70
2023-04-03T12:23:29.734Z,9.80
2023-04-03T12:26:07.363Z,9.80
2023-04-03T12:28:41.817Z,9.70
2023-04-03T12:31:16.954Z,9.80
2023-04-03T12:33:58.812Z,9.90
2023-04-03T12:36:31.153Z,10.00
2023-04-03T12:39:14.115Z,10.00
2023-04-03T12:41:54.887Z,10.10
2023-04-03T12:44:41.673Z,10.10
2023-04-03T12:47:24.166Z,10.00
2023-04-03T12:49:58.439Z,10.00
2023-04-03T12:52:48.595Z,10.10
2023-04-03T12:55:22.232Z,10.10
2023-04-03T12:57:58.876Z,10.00
2023-04-03T13:00:31.667Z,9.90
2023-04-03T13:03:09.819Z,9.90
2023-04-03T13:05:43.647Z,9.90
2023-04-03T13:08:17.780Z,9.90
2023-04-03T13:10:50.026Z,9.90
